Time;durP1;ratioP1;P1;durP2;ratioP2;P2;SDS_P1;SDS_P2;PMS_P1;PMS_P2;Temp;Humidity;BMP_temperature;BMP_pressure;BME280_temperature;BME280_humidity;BME280_pressure;Samples;Min_cycle;Max_cycle;Signal;HPM_P1;HPM_P2
2022/09/20 00:01:32;;;;;;;8.53;7.27;;;11.20;99.90;;;;;;5097468;28;20447;-85
2022/09/20 00:04:03;;;;;;;9.10;6.80;;;11.20;99.90;;;;;;5102542;28;20448;-83
2022/09/20 00:06:32;;;;;;;9.57;8.67;;;11.20;99.90;;;;;;5098493;28;20485;-83
2022/09/20 00:09:00;;;;;;;13.00;8.13;;;11.20;99.90;;;;;;5086902;28;20451;-83
2022/09/20 00:11:28;;;;;;;8.53;6.73;;;11.20;99.90;;;;;;5086405;28;20439;-84
2022/09/20 00:13:57;;;;;;;12.73;7.80;;;11.20;99.90;;;;;;5083046;28;20447;-83
2022/09/20 00:16:26;;;;;;;12.43;7.23;;;11.20;99.90;;;;;;5089475;28;20454;-83
2022/09/20 00:18:55;;;;;;;6.43;4.97;;;11.20;99.90;;;;;;5085736;28;20450;-84
2022/09/20 00:21:26;;;;;;;6.20;5.43;;;11.10;99.90;;;;;;5089698;28;20826;-82
2022/09/20 00:23:53;;;;;;;9.10;5.77;;;11.10;99.90;;;;;;5088931;28;20436;-83
2022/09/20 00:26:21;;;;;;;5.90;5.20;;;11.00;99.90;;;;;;5089272;28;20483;-83
2022/09/20 00:28:48;;;;;;;9.57;6.17;;;10.90;99.90;;;;;;5095404;28;20496;-83
2022/09/20 00:31:15;;;;;;;6.70;6.07;;;10.90;99.90;;;;;;5091557;28;20443;-84
2022/09/20 00:36:26;;;;;;;7.10;5.60;;;10.80;99.90;;;;;;5057089;28;20445;-83
2022/09/20 00:38:55;;;;;;;8.17;6.43;;;10.80;99.90;;;;;;5096779;28;20459;-84
2022/09/20 00:41:22;;;;;;;11.90;5.23;;;10.80;99.90;;;;;;5093602;28;20498;-84
2022/09/20 00:43:48;;;;;;;8.70;5.67;;;10.80;99.90;;;;;;5101984;28;20424;-84
2022/09/20 00:46:22;;;;;;;7.43;5.23;;;10.80;99.90;;;;;;5113828;28;20470;-83
2022/09/20 00:48:53;;;;;;;8.90;4.90;;;10.80;99.90;;;;;;5105043;28;20408;-83
2022/09/20 00:51:27;;;;;;;6.70;5.40;;;10.80;99.90;;;;;;5104379;28;20416;-84
2022/09/20 00:53:57;;;;;;;6.70;5.00;;;10.90;99.90;;;;;;5104571;28;20446;-85
2022/09/20 00:56:28;;;;;;;9.17;5.53;;;10.90;99.90;;;;;;5095046;28;20451;-84
2022/09/20 00:58:59;;;;;;;8.90;5.27;;;10.90;99.90;;;;;;5095403;28;20443;-84
2022/09/20 01:01:26;;;;;;;10.20;6.17;;;11.00;99.90;;;;;;5091351;28;20435;-84
2022/09/20 01:03:53;;;;;;;8.43;5.40;;;11.00;99.90;;;;;;5096442;28;20447;-84
2022/09/20 01:06:20;;;;;;;10.50;7.70;;;11.10;99.90;;;;;;5103270;28;20484;-83
2022/09/20 01:08:51;;;;;;;12.03;8.80;;;11.10;99.90;;;;;;5107546;28;20465;-83
2022/09/20 01:11:18;;;;;;;11.80;8.53;;;11.20;99.90;;;;;;5098761;28;20428;-82
2022/09/20 01:13:45;;;;;;;12.73;8.63;;;11.30;99.90;;;;;;5103309;28;20447;-85
2022/09/20 01:16:14;;;;;;;13.60;8.87;;;11.30;99.90;;;;;;5100090;28;20828;-85
2022/09/20 01:18:42;;;;;;;9.90;7.83;;;11.30;99.90;;;;;;5094183;28;20457;-84
2022/09/20 01:21:10;;;;;;;9.47;8.10;;;11.20;99.90;;;;;;5091002;28;20939;-84
2022/09/20 01:23:46;;;;;;;12.83;8.43;;;11.30;99.90;;;;;;5099407;28;20439;-84
2022/09/20 01:26:40;;;;;;;12.20;8.60;;;11.30;99.90;;;;;;5090286;28;20474;-83
2022/09/20 01:29:18;;;;;;;9.40;6.90;;;11.30;99.90;;;;;;5093515;28;20439;-83
2022/09/20 01:31:49;;;;;;;9.70;7.37;;;11.30;99.90;;;;;;5094984;28;20446;-83
2022/09/20 01:34:21;;;;;;;11.63;8.73;;;11.30;99.90;;;;;;5096204;28;20438;-83
2022/09/20 01:36:51;;;;;;;6.50;5.90;;;11.30;99.90;;;;;;5095241;28;20722;-83
2022/09/20 01:39:30;;;;;;;8.73;5.47;;;11.30;99.90;;;;;;5108793;28;20435;-82
2022/09/20 01:41:59;;;;;;;8.97;6.63;;;11.30;99.90;;;;;;5104840;28;20443;-83
2022/09/20 01:44:34;;;;;;;10.40;5.73;;;11.20;99.90;;;;;;5107822;28;20418;-82
2022/09/20 01:47:05;;;;;;;7.60;4.60;;;11.20;99.90;;;;;;5102910;28;20470;-82
2022/09/20 01:49:40;;;;;;;8.20;5.70;;;11.20;99.90;;;;;;5101685;28;20431;-83
2022/09/20 01:52:33;;;;;;;7.47;4.10;;;11.10;99.90;;;;;;5097935;28;20440;-83
2022/09/20 01:55:38;;;;;;;7.77;5.13;;;11.10;99.90;;;;;;5091477;28;20446;-83
2022/09/20 01:58:42;;;;;;;5.90;4.43;;;11.10;99.90;;;;;;5091555;28;20427;-83
2022/09/20 02:01:55;;;;;;;7.47;4.67;;;11.10;99.90;;;;;;5092449;28;20430;-84
2022/09/20 02:05:03;;;;;;;9.60;4.63;;;11.10;99.90;;;;;;5084631;28;20443;-84
2022/09/20 02:07:53;;;;;;;9.17;4.60;;;11.10;99.90;;;;;;5097347;28;20483;-86
2022/09/20 02:10:53;;;;;;;9.57;5.07;;;11.00;99.90;;;;;;5093955;28;20528;-86
2022/09/20 02:13:30;;;;;;;7.97;4.63;;;11.10;99.90;;;;;;5081406;28;20436;-85
2022/09/20 02:16:24;;;;;;;9.43;5.00;;;11.20;99.90;;;;;;5088421;28;20455;-83
2022/09/20 02:19:16;;;;;;;7.23;4.27;;;11.10;99.90;;;;;;5094127;28;20525;-83
2022/09/20 02:21:49;;;;;;;7.63;4.87;;;11.20;99.90;;;;;;5091495;28;20432;-84
2022/09/20 02:24:24;;;;;;;6.60;4.50;;;11.20;99.90;;;;;;5103369;28;20415;-83
2022/09/20 02:27:07;;;;;;;8.17;4.70;;;11.20;99.90;;;;;;5104288;28;20486;-84
2022/09/20 02:29:44;;;;;;;5.67;4.67;;;11.20;99.90;;;;;;5088950;28;20442;-84
2022/09/20 02:32:29;;;;;;;9.53;5.30;;;11.20;99.90;;;;;;5097884;28;20438;-84
2022/09/20 02:35:30;;;;;;;5.77;4.80;;;11.20;99.90;;;;;;5097715;28;20438;-83
2022/09/20 02:38:13;;;;;;;8.00;5.30;;;11.20;99.90;;;;;;5053434;28;20435;-84
2022/09/20 02:40:56;;;;;;;5.00;4.33;;;11.20;99.90;;;;;;5110825;28;20435;-83
2022/09/20 02:43:30;;;;;;;5.73;5.03;;;11.20;99.90;;;;;;5096606;28;20941;-83
2022/09/20 02:46:03;;;;;;;10.03;4.70;;;11.30;99.90;;;;;;5093946;28;20501;-84
2022/09/20 02:48:38;;;;;;;5.90;4.53;;;11.30;99.90;;;;;;5096232;28;20482;-85
2022/09/20 02:51:13;;;;;;;6.53;5.07;;;11.30;99.90;;;;;;5094436;28;20470;-84
2022/09/20 02:53:47;;;;;;;9.30;4.50;;;11.30;99.90;;;;;;5093714;28;20444;-83
2022/09/20 02:56:24;;;;;;;5.87;5.27;;;11.40;99.90;;;;;;5101217;28;20462;-84
2022/09/20 02:59:00;;;;;;;7.80;4.60;;;11.30;99.90;;;;;;5099875;28;20443;-84
2022/09/20 03:01:38;;;;;;;7.10;5.33;;;11.30;99.90;;;;;;5098133;28;20471;-83
2022/09/20 03:04:18;;;;;;;6.80;5.03;;;11.30;99.90;;;;;;5095405;28;20932;-83
2022/09/20 03:06:55;;;;;;;10.30;5.07;;;11.30;99.90;;;;;;5094782;28;20490;-84
2022/09/20 03:09:29;;;;;;;6.83;5.67;;;11.30;99.90;;;;;;5091575;28;20438;-85
2022/09/20 03:12:04;;;;;;;7.43;5.03;;;11.20;99.90;;;;;;5093226;28;20441;-84
2022/09/20 03:14:36;;;;;;;7.93;5.37;;;11.20;99.90;;;;;;5091675;28;20432;-85
2022/09/20 03:17:08;;;;;;;7.60;5.43;;;11.10;99.90;;;;;;5094818;28;20455;-83
2022/09/20 03:20:00;;;;;;;6.47;5.40;;;11.10;99.90;;;;;;5100259;28;20441;-85
2022/09/20 03:22:39;;;;;;;9.57;5.63;;;11.00;99.90;;;;;;5082186;28;20465;-84
2022/09/20 03:25:45;;;;;;;9.20;5.30;;;10.90;99.90;;;;;;5100683;28;20478;-84
2022/09/20 03:28:36;;;;;;;9.10;5.97;;;10.90;99.90;;;;;;5091359;28;20479;-83
2022/09/20 03:31:12;;;;;;;10.20;5.80;;;10.80;99.90;;;;;;5103886;28;20435;-85
2022/09/20 03:33:47;;;;;;;9.00;5.87;;;10.90;99.90;;;;;;5102927;28;20539;-83
2022/09/20 03:36:35;;;;;;;10.80;6.43;;;11.00;99.90;;;;;;5089582;28;20459;-83
2022/09/20 03:39:23;;;;;;;8.33;5.73;;;11.00;99.90;;;;;;5099901;28;20492;-84
2022/09/20 03:42:03;;;;;;;8.13;5.20;;;11.20;99.90;;;;;;5104306;28;20420;-83
2022/09/20 03:44:57;;;;;;;10.43;5.43;;;11.20;99.90;;;;;;5101944;28;20420;-84
2022/09/20 03:47:41;;;;;;;11.03;6.07;;;11.20;99.90;;;;;;5075235;28;20483;-83
2022/09/20 03:50:23;;;;;;;7.70;6.17;;;11.10;99.90;;;;;;5100187;28;20439;-85
2022/09/20 03:53:21;;;;;;;11.33;7.10;;;11.10;99.90;;;;;;5097321;28;20848;-84
2022/09/20 03:56:10;;;;;;;6.77;5.47;;;11.10;99.90;;;;;;5097774;28;20482;-84
2022/09/20 03:58:56;;;;;;;10.73;5.87;;;11.20;99.90;;;;;;5090325;28;20463;-86
2022/09/20 04:01:49;;;;;;;8.23;5.50;;;11.20;99.90;;;;;;5092119;28;20440;-85
2022/09/20 04:04:24;;;;;;;7.10;5.77;;;11.20;99.90;;;;;;5108024;28;20447;-83
2022/09/20 04:07:10;;;;;;;7.93;5.50;;;11.20;99.90;;;;;;5105479;28;20443;-85
2022/09/20 04:10:16;;;;;;;14.47;6.10;;;11.30;99.90;;;;;;5101991;28;20458;-85
2022/09/20 04:12:55;;;;;;;6.63;5.60;;;11.30;99.90;;;;;;5103720;28;20459;-82
2022/09/20 04:15:35;;;;;;;9.00;5.17;;;11.30;99.90;;;;;;5099899;28;20484;-84
2022/09/20 04:18:11;;;;;;;8.60;5.17;;;11.40;99.90;;;;;;5092058;28;20446;-84
2022/09/20 04:20:45;;;;;;;6.00;5.40;;;11.40;99.90;;;;;;5094694;28;20434;-84
2022/09/20 04:23:20;;;;;;;8.30;5.03;;;11.40;99.90;;;;;;5100125;28;20439;-84
2022/09/20 04:25:49;;;;;;;8.90;5.27;;;11.40;99.90;;;;;;5106827;28;20440;-81
2022/09/20 04:28:22;;;;;;;8.13;5.13;;;11.40;99.90;;;;;;5102892;28;20462;-82
2022/09/20 04:30:55;;;;;;;7.87;5.53;;;11.20;99.90;;;;;;5107629;28;20470;-82
2022/09/20 04:33:26;;;;;;;7.60;5.20;;;11.20;99.90;;;;;;5106831;28;20423;-83
2022/09/20 04:39:00;;;;;;;11.60;5.60;;;11.30;99.90;;;;;;5092982;28;20423;-83
2022/09/20 04:42:00;;;;;;;9.53;5.60;;;11.30;99.90;;;;;;5099106;28;20439;-84
2022/09/20 04:44:46;;;;;;;12.37;4.87;;;11.30;99.90;;;;;;5092450;28;20467;-84
2022/09/20 04:48:01;;;;;;;11.27;4.67;;;11.40;99.90;;;;;;5082948;28;20455;-84
2022/09/20 04:51:05;;;;;;;8.80;5.73;;;11.40;99.90;;;;;;5089817;28;20435;-84
2022/09/20 04:54:06;;;;;;;7.90;4.20;;;11.40;99.90;;;;;;5091816;28;20970;-85
2022/09/20 04:56:50;;;;;;;7.37;4.70;;;11.40;99.90;;;;;;5072588;28;20481;-84
2022/09/20 04:59:29;;;;;;;8.83;4.70;;;11.40;99.90;;;;;;5089770;28;20568;-84
2022/09/20 05:02:38;;;;;;;8.23;4.63;;;11.40;99.90;;;;;;5085781;28;20451;-83
2022/09/20 05:05:45;;;;;;;8.73;4.30;;;11.40;99.90;;;;;;5094825;28;20470;-82
2022/09/20 05:08:39;;;;;;;10.80;5.30;;;11.40;99.90;;;;;;5007953;28;20883;-82
2022/09/20 05:11:46;;;;;;;9.67;4.53;;;11.50;99.90;;;;;;5005713;28;20475;-86
2022/09/20 05:14:40;;;;;;;5.40;4.03;;;11.40;99.90;;;;;;5049211;28;20432;-84
2022/09/20 05:17:29;;;;;;;10.93;4.90;;;11.40;99.90;;;;;;5098978;28;20454;-84
2022/09/20 05:20:39;;;;;;;7.80;4.50;;;11.40;99.90;;;;;;5091699;28;20448;-84
2022/09/20 05:23:37;;;;;;;7.00;3.87;;;11.50;99.90;;;;;;5090024;28;20470;-84
2022/09/20 05:26:12;;;;;;;7.50;3.50;;;11.40;99.90;;;;;;5089591;28;20456;-84
2022/09/20 05:28:50;;;;;;;8.07;3.40;;;11.40;99.90;;;;;;5088988;28;20475;-84
2022/09/20 05:31:27;;;;;;;4.40;3.10;;;11.30;99.90;;;;;;5089515;28;20427;-83
2022/09/20 05:34:02;;;;;;;4.60;3.10;;;11.30;99.90;;;;;;5090985;28;20967;-84
2022/09/20 05:36:39;;;;;;;7.63;3.50;;;11.20;99.90;;;;;;5085805;28;20455;-82
2022/09/20 05:39:19;;;;;;;5.43;3.43;;;11.20;99.90;;;;;;5085775;28;20434;-84
2022/09/20 05:41:54;;;;;;;5.73;4.47;;;11.10;99.90;;;;;;5093344;28;20436;-80
2022/09/20 05:44:31;;;;;;;6.73;3.37;;;11.10;99.90;;;;;;5110859;28;20422;-83
2022/09/20 05:47:08;;;;;;;8.60;4.40;;;11.00;99.90;;;;;;5095457;28;20462;-84
2022/09/20 05:49:50;;;;;;;6.00;3.43;;;11.00;99.90;;;;;;5083395;28;20485;-85
2022/09/20 05:52:33;;;;;;;6.17;3.80;;;11.00;99.90;;;;;;5084861;28;20440;-84
2022/09/20 05:55:14;;;;;;;11.20;4.23;;;11.00;99.90;;;;;;5088472;28;20445;-84
2022/09/20 05:57:55;;;;;;;10.33;4.13;;;11.20;99.90;;;;;;5085171;28;20435;-84
2022/09/20 06:00:26;;;;;;;5.50;4.10;;;11.30;99.90;;;;;;5083217;28;20440;-84
2022/09/20 06:03:00;;;;;;;7.30;3.80;;;11.40;99.90;;;;;;5091217;28;20527;-84
2022/09/20 06:05:37;;;;;;;7.27;3.93;;;11.40;99.90;;;;;;5084432;28;20443;-84
2022/09/20 06:08:18;;;;;;;6.33;4.27;;;11.50;99.90;;;;;;5102609;28;20473;-83
2022/09/20 06:11:02;;;;;;;8.40;3.90;;;11.60;99.90;;;;;;5104067;28;20511;-83
2022/09/20 06:13:41;;;;;;;8.00;3.70;;;11.80;99.90;;;;;;5093308;28;21009;-86
2022/09/20 06:16:14;;;;;;;6.60;3.90;;;11.90;99.90;;;;;;5095428;28;20459;-85
2022/09/20 06:18:45;;;;;;;8.87;4.40;;;12.00;99.90;;;;;;5089074;28;20439;-83
2022/09/20 06:21:23;;;;;;;6.73;3.90;;;12.10;99.90;;;;;;5086769;28;20431;-84
2022/09/20 06:23:52;;;;;;;6.30;3.90;;;12.20;99.90;;;;;;5097374;28;20442;-85
2022/09/20 06:26:23;;;;;;;8.63;3.60;;;12.20;99.90;;;;;;5103064;28;20447;-85
2022/09/20 06:28:54;;;;;;;7.13;3.70;;;12.20;99.90;;;;;;5096253;28;21015;-84
2022/09/20 06:31:21;;;;;;;6.60;3.90;;;12.20;99.90;;;;;;5097569;28;20466;-84
2022/09/20 06:33:55;;;;;;;5.17;3.63;;;12.20;99.90;;;;;;5103020;28;20431;-83
2022/09/20 06:42:09;;;;;;;6.83;4.93;;;12.40;99.90;;;;;;5101379;28;20435;-84
2022/09/20 06:44:40;;;;;;;5.90;3.73;;;12.50;99.90;;;;;;5097697;28;20474;-84
2022/09/20 06:47:07;;;;;;;6.27;4.20;;;12.70;99.90;;;;;;5085559;28;20512;-84
2022/09/20 06:49:34;;;;;;;8.80;4.10;;;12.80;99.90;;;;;;5096546;28;20483;-85
2022/09/20 06:52:03;;;;;;;7.10;3.70;;;13.00;99.90;;;;;;5090660;28;20496;-84
2022/09/20 06:54:31;;;;;;;5.50;3.63;;;13.10;99.90;;;;;;5103334;28;20435;-84
2022/09/20 06:57:01;;;;;;;6.63;3.73;;;13.20;99.90;;;;;;5100695;28;20473;-84
2022/09/20 06:59:28;;;;;;;7.07;3.70;;;13.30;99.90;;;;;;5098679;28;20432;-84
2022/09/20 07:01:55;;;;;;;4.83;3.50;;;13.40;99.90;;;;;;5092934;28;20447;-84
2022/09/20 07:04:25;;;;;;;6.13;4.00;;;13.60;99.90;;;;;;5096855;28;20446;-84
2022/09/20 07:06:52;;;;;;;10.67;4.50;;;13.80;99.90;;;;;;5092371;28;20464;-83
2022/09/20 07:09:19;;;;;;;7.43;3.63;;;13.90;99.90;;;;;;5097700;28;20586;-84
2022/09/20 07:11:47;;;;;;;6.40;3.83;;;14.00;99.90;;;;;;5094985;28;20505;-84
2022/09/20 07:14:15;;;;;;;8.80;3.47;;;14.10;99.90;;;;;;5094046;28;20989;-84
2022/09/20 07:16:41;;;;;;;7.80;3.83;;;14.00;99.90;;;;;;5096216;28;20481;-84
2022/09/20 07:19:08;;;;;;;7.00;3.87;;;13.80;99.90;;;;;;5095072;28;20657;-83
2022/09/20 07:21:34;;;;;;;5.83;3.77;;;13.70;99.90;;;;;;5091808;28;20842;-84
2022/09/20 07:24:02;;;;;;;7.83;4.73;;;13.80;99.90;;;;;;5089429;28;20466;-84
2022/09/20 07:26:30;;;;;;;9.07;4.20;;;13.80;99.90;;;;;;5089991;28;20478;-84
2022/09/20 07:28:59;;;;;;;9.50;4.30;;;14.00;99.90;;;;;;5093038;28;20507;-83
2022/09/20 07:31:28;;;;;;;7.37;4.17;;;14.10;99.90;;;;;;5093362;28;20446;-84
2022/09/20 07:33:55;;;;;;;6.60;3.87;;;14.30;99.90;;;;;;5091195;28;20439;-84
2022/09/20 07:36:21;;;;;;;7.03;3.70;;;14.50;99.90;;;;;;5091288;28;20470;-84
2022/09/20 07:38:49;;;;;;;10.80;3.53;;;14.70;99.90;;;;;;5089647;28;20436;-84
2022/09/20 07:41:17;;;;;;;9.17;3.60;;;14.80;99.90;;;;;;5092317;28;20433;-84
2022/09/20 07:43:45;;;;;;;7.90;3.57;;;14.90;99.90;;;;;;5091299;28;20936;-84
2022/09/20 07:46:13;;;;;;;7.00;3.63;;;14.90;99.90;;;;;;5091693;28;20463;-84
2022/09/20 07:48:41;;;;;;;7.23;3.80;;;14.70;99.90;;;;;;5085374;28;21057;-84
2022/09/20 07:51:10;;;;;;;7.90;4.30;;;14.50;99.90;;;;;;5083556;28;20462;-84
2022/09/20 07:53:37;;;;;;;7.17;3.73;;;14.50;99.90;;;;;;5090099;28;20920;-84
2022/09/20 07:56:06;;;;;;;6.37;4.00;;;14.90;99.90;;;;;;5081442;28;20463;-86
2022/09/20 07:58:35;;;;;;;5.00;2.90;;;15.20;99.90;;;;;;5083813;28;20443;-87
2022/09/20 08:01:04;;;;;;;7.07;3.17;;;15.40;99.90;;;;;;5083203;28;20463;-86
2022/09/20 08:03:33;;;;;;;7.63;3.53;;;15.30;99.90;;;;;;5088547;28;20871;-84
2022/09/20 08:06:07;;;;;;;8.20;3.33;;;15.20;99.90;;;;;;5096197;28;20524;-86
2022/09/20 08:08:36;;;;;;;7.40;3.20;;;15.30;99.90;;;;;;5094310;28;20502;-82
2022/09/20 08:11:04;;;;;;;8.17;3.97;;;15.30;99.90;;;;;;5090147;28;20434;-84
2022/09/20 08:13:31;;;;;;;7.77;3.03;;;15.40;99.90;;;;;;5093145;28;20489;-84
2022/09/20 08:16:02;;;;;;;11.00;3.10;;;15.70;99.90;;;;;;5092328;28;20467;-84
2022/09/20 08:18:28;;;;;;;7.60;3.03;;;15.80;99.90;;;;;;5086674;28;20443;-84
2022/09/20 08:20:56;;;;;;;10.23;4.10;;;16.20;99.90;;;;;;5088000;28;20440;-85
2022/09/20 08:23:23;;;;;;;6.97;2.87;;;16.50;99.90;;;;;;5092292;28;20499;-84
2022/09/20 08:25:50;;;;;;;6.53;3.10;;;16.60;99.50;;;;;;5089218;28;20456;-84
2022/09/20 08:28:16;;;;;;;7.03;3.17;;;16.50;99.10;;;;;;5092198;28;20482;-84
2022/09/20 08:30:43;;;;;;;8.17;2.37;;;16.50;98.40;;;;;;5096015;28;20428;-83
2022/09/20 08:33:10;;;;;;;9.00;2.40;;;17.10;98.40;;;;;;5112340;28;20421;-88
2022/09/20 08:35:37;;;;;;;7.33;2.27;;;17.30;97.10;;;;;;5105002;28;20500;-88
2022/09/20 08:38:06;;;;;;;4.97;2.40;;;16.90;96.80;;;;;;5105181;28;20428;-90
2022/09/20 08:40:35;;;;;;;7.13;3.00;;;16.30;97.10;;;;;;5086506;28;20440;-90
2022/09/20 08:43:07;;;;;;;6.57;2.73;;;16.00;97.70;;;;;;5086684;28;20444;-84
2022/09/20 08:45:33;;;;;;;4.80;2.37;;;16.10;97.50;;;;;;5091379;28;20976;-80
2022/09/20 08:48:04;;;;;;;4.77;2.13;;;16.50;96.30;;;;;;5080367;28;20485;-82
2022/09/20 08:50:33;;;;;;;8.60;3.47;;;17.00;96.10;;;;;;5086858;28;20480;-84
2022/09/20 08:53:06;;;;;;;7.03;2.80;;;17.60;95.50;;;;;;5091059;28;20456;-82
2022/09/20 08:55:38;;;;;;;8.37;2.87;;;18.00;93.40;;;;;;5082649;28;20506;-81
2022/09/20 08:58:05;;;;;;;5.00;2.20;;;18.00;92.60;;;;;;5090573;28;20443;-81
2022/09/20 09:00:33;;;;;;;6.70;2.87;;;18.00;92.00;;;;;;5082552;28;20439;-81
2022/09/20 09:03:04;;;;;;;4.93;2.93;;;18.10;91.10;;;;;;5078840;28;21287;-82
2022/09/20 09:05:33;;;;;;;5.70;2.13;;;18.30;90.90;;;;;;5082626;28;20440;-80
2022/09/20 09:08:03;;;;;;;6.23;3.13;;;18.20;90.30;;;;;;5087554;28;20816;-81
2022/09/20 09:10:35;;;;;;;4.17;2.27;;;18.00;90.90;;;;;;5088809;28;20464;-81
2022/09/20 09:13:03;;;;;;;7.33;2.00;;;17.70;90.90;;;;;;5092796;28;20440;-80
2022/09/20 09:15:33;;;;;;;9.63;2.50;;;17.50;91.20;;;;;;5094877;28;20444;-81
2022/09/20 09:18:00;;;;;;;10.60;2.23;;;17.30;91.40;;;;;;5097172;28;20435;-81
2022/09/20 09:20:27;;;;;;;4.00;1.77;;;17.00;91.80;;;;;;5097522;28;20436;-83
2022/09/20 09:23:03;;;;;;;4.73;1.80;;;16.60;92.10;;;;;;5086259;28;20439;-82
2022/09/20 09:25:33;;;;;;;11.77;2.67;;;16.40;92.50;;;;;;5081459;28;20438;-83
2022/09/20 09:28:04;;;;;;;5.80;2.57;;;16.30;92.30;;;;;;5078270;28;20827;-81
2022/09/20 09:30:33;;;;;;;5.13;2.80;;;16.20;92.90;;;;;;5084957;28;20555;-81
2022/09/20 09:33:16;;;;;;;7.77;2.30;;;15.90;93.00;;;;;;5084293;28;20465;-82
2022/09/20 09:35:45;;;;;;;9.17;2.50;;;15.80;93.10;;;;;;5081345;28;20471;-85
2022/09/20 09:38:20;;;;;;;5.37;2.60;;;15.60;93.10;;;;;;5081508;28;20458;-86
2022/09/20 09:40:50;;;;;;;6.10;2.40;;;15.80;93.10;;;;;;5083999;28;20426;-84
2022/09/20 09:43:25;;;;;;;6.50;2.93;;;16.00;93.10;;;;;;5083857;28;20427;-84
2022/09/20 09:45:54;;;;;;;5.03;1.97;;;16.30;92.50;;;;;;5081538;28;20459;-82
2022/09/20 09:48:24;;;;;;;5.47;1.90;;;16.80;91.80;;;;;;5084960;28;20449;-83
2022/09/20 09:51:07;;;;;;;3.93;2.00;;;17.80;90.00;;;;;;5082282;28;20484;-84
2022/09/20 09:53:35;;;;;;;6.73;2.37;;;18.20;85.90;;;;;;5083385;28;20860;-84
2022/09/20 09:56:45;;;;;;;5.40;1.80;;;18.10;83.40;;;;;;5082787;28;20590;-85
2022/09/20 09:59:32;;;;;;;4.70;2.30;;;18.10;83.90;;;;;;5006087;28;20435;-84
2022/09/20 10:02:09;;;;;;;3.30;2.00;;;17.90;83.10;;;;;;5004100;28;20971;-82
2022/09/20 10:04:45;;;;;;;4.60;1.80;;;17.90;81.60;;;;;;5049694;28;20436;-82
2022/09/20 10:07:21;;;;;;;7.83;2.10;;;18.30;81.50;;;;;;5083305;28;20455;-80
2022/09/20 10:10:01;;;;;;;4.17;1.90;;;18.60;79.80;;;;;;5081692;28;20475;-85
2022/09/20 10:12:45;;;;;;;5.70;2.33;;;18.80;79.80;;;;;;5078248;28;20444;-82
2022/09/20 10:15:23;;;;;;;5.33;2.80;;;19.00;79.70;;;;;;5079402;28;20440;-84
2022/09/20 10:17:59;;;;;;;2.73;2.00;;;19.60;78.10;;;;;;5083547;28;20474;-82
2022/09/20 10:20:36;;;;;;;7.77;3.10;;;20.30;75.80;;;;;;5082718;28;20503;-84
2022/09/20 10:23:14;;;;;;;5.03;1.90;;;20.70;74.80;;;;;;5087113;28;20440;-81
2022/09/20 10:25:51;;;;;;;6.20;2.13;;;21.80;70.40;;;;;;5095108;28;20460;-81
2022/09/20 10:28:31;;;;;;;7.43;1.70;;;22.50;66.00;;;;;;5096940;28;21010;-83
2022/09/20 10:31:09;;;;;;;9.00;2.30;;;24.50;63.10;;;;;;5090689;28;20478;-81
2022/09/20 10:33:46;;;;;;;6.20;2.37;;;24.60;59.00;;;;;;5097282;28;20436;-83
2022/09/20 10:36:23;;;;;;;4.80;2.20;;;23.20;59.20;;;;;;5103483;28;20444;-79
2022/09/20 10:38:57;;;;;;;4.23;2.20;;;21.70;61.60;;;;;;5100858;28;20424;-82
2022/09/20 10:44:35;;;;;;;5.37;2.83;;;20.10;67.10;;;;;;5084299;28;20427;-83
2022/09/20 10:47:10;;;;;;;5.57;1.97;;;19.40;68.70;;;;;;5090208;28;20467;-84
2022/09/20 10:49:42;;;;;;;6.90;1.87;;;19.30;69.40;;;;;;5093783;28;20501;-81
2022/09/20 10:52:30;;;;;;;5.10;2.20;;;19.20;69.50;;;;;;5092620;28;20493;-82
2022/09/20 10:55:33;;;;;;;5.90;3.47;;;19.60;69.00;;;;;;5088261;28;20439;-82
2022/09/20 10:58:25;;;;;;;5.70;1.60;;;20.30;67.80;;;;;;5042961;28;20443;-82
2022/09/20 11:01:01;;;;;;;7.47;2.20;;;21.10;65.70;;;;;;5090238;28;20435;-82
2022/09/20 11:03:45;;;;;;;5.33;2.93;;;21.90;63.00;;;;;;5106124;28;20415;-83
2022/09/20 11:06:17;;;;;;;5.13;1.90;;;24.80;59.60;;;;;;5105602;28;20436;-81
2022/09/20 11:08:50;;;;;;;5.30;2.10;;;28.30;53.10;;;;;;5106241;28;20413;-82
2022/09/20 11:11:21;;;;;;;3.90;1.70;;;29.50;47.10;;;;;;5091288;28;20972;-80
2022/09/20 11:13:56;;;;;;;4.77;2.00;;;28.40;46.80;;;;;;5093529;28;20438;-83
2022/09/20 11:16:27;;;;;;;3.70;1.43;;;28.00;47.60;;;;;;5092085;28;20441;-84
2022/09/20 11:19:01;;;;;;;6.17;2.07;;;26.90;48.20;;;;;;5089969;28;20525;-83
2022/09/20 11:21:33;;;;;;;4.00;1.83;;;25.80;49.60;;;;;;5100935;28;20441;-80
2022/09/20 11:24:05;;;;;;;5.30;1.93;;;24.90;51.10;;;;;;5106213;28;20443;-80
2022/09/20 11:26:38;;;;;;;5.83;1.80;;;24.60;50.70;;;;;;5107606;28;20522;-81
2022/09/20 11:29:16;;;;;;;4.07;1.73;;;24.50;50.90;;;;;;5105598;28;20421;-81
2022/09/20 11:31:46;;;;;;;5.00;1.83;;;24.10;51.60;;;;;;5107722;28;20440;-81
2022/09/20 11:34:25;;;;;;;4.20;1.70;;;25.00;52.20;;;;;;5108116;28;20425;-79
2022/09/20 11:36:59;;;;;;;6.30;1.50;;;27.30;49.00;;;;;;5098913;28;20612;-83
2022/09/20 11:39:35;;;;;;;4.17;1.97;;;30.10;45.70;;;;;;5098545;28;20423;-81
2022/09/20 11:42:06;;;;;;;3.63;1.50;;;31.70;41.80;;;;;;5089900;28;20494;-82
2022/09/20 11:44:41;;;;;;;3.80;1.53;;;31.80;39.30;;;;;;5090389;28;20506;-84
2022/09/20 11:47:17;;;;;;;4.00;1.37;;;32.60;37.10;;;;;;5091111;28;20460;-82
2022/09/20 11:49:58;;;;;;;6.53;5.47;;;32.60;35.10;;;;;;5103562;28;20528;-81
2022/09/20 11:52:38;;;;;;;3.20;1.93;;;32.00;36.10;;;;;;5106311;28;20430;-82
2022/09/20 11:55:24;;;;;;;4.10;2.20;;;32.90;34.70;;;;;;5087813;28;20441;-83
2022/09/20 11:58:06;;;;;;;4.60;2.10;;;33.40;33.90;;;;;;5091835;28;20492;-83
2022/09/20 12:00:39;;;;;;;4.00;2.30;;;32.80;34.40;;;;;;5091849;28;20946;-83
2022/09/20 12:03:11;;;;;;;4.67;1.90;;;32.80;34.80;;;;;;5084800;28;20442;-82
2022/09/20 12:05:43;;;;;;;7.60;4.73;;;32.80;34.80;;;;;;5094369;28;20459;-83
2022/09/20 12:08:24;;;;;;;4.30;2.30;;;32.70;34.60;;;;;;5089939;28;20995;-85
2022/09/20 12:11:00;;;;;;;2.43;1.40;;;32.40;34.70;;;;;;5092111;28;21035;-84
2022/09/20 12:13:27;;;;;;;3.63;1.93;;;31.60;33.90;;;;;;5085676;28;20438;-83
2022/09/20 12:16:00;;;;;;;4.83;2.00;;;29.40;37.40;;;;;;5100859;28;20476;-83
2022/09/20 12:18:31;;;;;;;3.90;2.10;;;27.90;39.70;;;;;;5094397;28;20427;-81
2022/09/20 12:21:11;;;;;;;5.20;2.10;;;26.70;41.90;;;;;;5099589;28;20470;-82
2022/09/20 12:24:09;;;;;;;3.87;1.83;;;28.00;40.80;;;;;;5100913;28;20436;-80
2022/09/20 12:26:42;;;;;;;4.33;2.03;;;29.50;37.90;;;;;;5097195;28;20487;-83
2022/09/20 12:29:51;;;;;;;3.70;1.60;;;30.30;35.70;;;;;;5092689;28;20438;-80
2022/09/20 12:32:42;;;;;;;6.90;2.30;;;32.10;34.40;;;;;;5103512;28;20444;-81
2022/09/20 12:35:51;;;;;;;4.87;2.10;;;32.60;32.20;;;;;;5096236;28;20444;-83
2022/09/20 12:38:36;;;;;;;4.90;2.00;;;32.20;31.70;;;;;;5083521;28;20442;-82
2022/09/20 12:41:13;;;;;;;3.40;1.60;;;32.50;33.00;;;;;;5090312;28;20442;-82
2022/09/20 12:43:50;;;;;;;4.30;1.73;;;33.20;31.40;;;;;;5095643;28;20447;-83
2022/09/20 12:46:29;;;;;;;3.53;1.53;;;32.70;32.20;;;;;;5085856;28;20462;-82
2022/09/20 12:55:25;;;;;;;2.60;1.80;;;32.90;30.90;;;;;;5086231;28;20424;-83
2022/09/20 12:57:57;;;;;;;2.70;1.70;;;33.70;30.20;;;;;;5089051;28;20461;-83
2022/09/20 13:00:35;;;;;;;7.20;2.00;;;31.10;30.90;;;;;;5085374;28;20446;-82
2022/09/20 13:03:11;;;;;;;3.73;2.03;;;29.70;32.70;;;;;;5084654;28;20519;-87
2022/09/20 13:05:39;;;;;;;3.40;1.60;;;29.00;34.30;;;;;;5086157;28;20481;-88
2022/09/20 13:08:14;;;;;;;4.60;2.60;;;29.70;35.10;;;;;;5084839;28;20431;-86
2022/09/20 13:10:48;;;;;;;4.50;2.10;;;30.80;33.70;;;;;;5083981;28;20473;-82
2022/09/20 13:13:30;;;;;;;3.27;1.90;;;31.10;32.80;;;;;;5091962;28;20493;-83
2022/09/20 13:15:58;;;;;;;5.47;1.90;;;30.30;32.70;;;;;;5087843;28;20466;-84
2022/09/20 13:18:27;;;;;;;5.57;2.27;;;28.60;34.80;;;;;;5083611;28;20446;-83
2022/09/20 13:20:56;;;;;;;5.13;1.63;;;27.50;36.80;;;;;;5085982;28;20444;-84
2022/09/20 13:23:27;;;;;;;4.53;1.87;;;26.40;38.10;;;;;;5101156;28;20429;-83
2022/09/20 13:25:58;;;;;;;2.00;1.17;;;25.50;40.00;;;;;;5102908;28;20463;-82
2022/09/20 13:28:33;;;;;;;4.00;1.80;;;25.10;40.90;;;;;;5105185;28;20492;-84
2022/09/20 13:31:27;;;;;;;6.70;2.17;;;24.60;41.50;;;;;;5088686;28;20481;-86
2022/09/20 13:33:54;;;;;;;3.33;1.97;;;24.00;41.60;;;;;;5097561;28;20544;-83
2022/09/20 13:36:27;;;;;;;4.30;1.90;;;23.90;42.70;;;;;;5088963;28;20979;-83
2022/09/20 13:38:57;;;;;;;5.27;1.90;;;24.40;41.90;;;;;;5089438;28;20443;-83
2022/09/20 13:41:29;;;;;;;4.77;2.17;;;24.50;42.20;;;;;;5082559;28;20486;-83
2022/09/20 13:43:56;;;;;;;4.70;1.97;;;24.10;43.70;;;;;;5077629;28;21007;-83
2022/09/20 13:46:24;;;;;;;5.73;2.60;;;23.60;45.80;;;;;;5077847;28;20999;-83
2022/09/20 13:49:12;;;;;;;8.57;3.40;;;22.90;47.90;;;;;;5081182;28;20517;-83
2022/09/20 13:51:39;;;;;;;4.40;2.77;;;22.30;49.20;;;;;;5089574;28;20566;-83
2022/09/20 13:54:21;;;;;;;7.90;3.10;;;21.90;50.40;;;;;;5083531;28;20445;-83